createdAt,value
2023-03-21T00:09:29.468Z,98.65
2023-03-21T00:19:38.597Z,99.37
2023-03-21T00:29:44.442Z,99.79
2023-03-21T00:39:51.955Z,99.96
2023-03-21T00:49:57.700Z,100.00
2023-03-21T01:00:04.246Z,100.00
2023-03-21T01:10:11.867Z,100.00
2023-03-21T01:20:17.592Z,100.00
2023-03-21T01:30:24.864Z,100.00
2023-03-21T01:40:29.183Z,100.00
2023-03-21T01:50:35.187Z,100.00
2023-03-21T02:00:41.619Z,100.00
2023-03-21T02:10:50.673Z,100.00
2023-03-21T02:21:25.662Z,100.00
2023-03-21T02:31:48.996Z,100.00
2023-03-21T02:42:02.753Z,100.00
2023-03-21T02:52:18.692Z,100.00
2023-03-21T03:02:31.213Z,100.00
2023-03-21T03:12:47.021Z,100.00
2023-03-21T03:22:58.981Z,100.00
2023-03-21T03:33:07.675Z,100.00
2023-03-21T03:43:17.253Z,100.00
2023-03-21T03:53:29.595Z,100.00
2023-03-21T04:03:48.406Z,100.00
2023-03-21T04:13:54.551Z,100.00
2023-03-21T04:24:00.462Z,100.00
2023-03-21T04:34:10.033Z,100.00
2023-03-21T04:44:18.103Z,100.00
2023-03-21T04:54:24.280Z,100.00
2023-03-21T05:04:31.227Z,100.00
2023-03-21T05:14:37.002Z,100.00
2023-03-21T05:24:42.772Z,100.00
2023-03-21T05:34:48.602Z,100.00
2023-03-21T05:44:54.713Z,100.00
2023-03-21T05:55:00.759Z,100.00
2023-03-21T06:05:07.342Z,100.00
2023-03-21T06:15:14.038Z,100.00
2023-03-21T06:25:19.910Z,100.00
2023-03-21T06:35:25.543Z,100.00
2023-03-21T06:45:31.383Z,100.00
2023-03-21T06:55:37.401Z,100.00
2023-03-21T07:05:43.929Z,100.00
2023-03-21T07:15:49.821Z,100.00
2023-03-21T07:25:56.334Z,100.00
2023-03-21T07:36:03.428Z,100.00
2023-03-21T07:46:09.659Z,100.00
2023-03-21T07:56:16.001Z,99.97
2023-03-21T08:06:21.837Z,99.63
2023-03-21T08:16:27.986Z,99.61
2023-03-21T08:26:34.561Z,97.73
2023-03-21T08:36:40.611Z,97.52
2023-03-21T08:46:46.341Z,96.91
2023-03-21T08:56:52.569Z,95.91
2023-03-21T09:07:01.520Z,93.81
2023-03-21T09:17:07.237Z,93.53
2023-03-21T09:27:14.094Z,93.13
2023-03-21T09:37:21.423Z,92.14
2023-03-21T09:47:34.860Z,91.59
2023-03-21T09:57:45.056Z,90.45
2023-03-21T10:07:56.065Z,89.84
2023-03-21T10:18:06.126Z,89.54
2023-03-21T10:28:18.310Z,89.84
2023-03-21T10:38:27.116Z,89.92
2023-03-21T10:48:39.021Z,89.85
2023-03-21T10:58:48.100Z,90.33
2023-03-21T11:08:57.981Z,90.35
2023-03-21T11:19:13.468Z,88.36
2023-03-21T11:29:35.500Z,86.51
2023-03-21T11:39:47.405Z,86.37
2023-03-21T11:49:58.347Z,86.56
2023-03-21T12:00:20.862Z,86.26
2023-03-21T12:10:44.534Z,85.70
2023-03-21T12:20:55.324Z,85.61
2023-03-21T12:31:07.505Z,84.44
2023-03-21T12:41:27.475Z,83.16
2023-03-21T12:51:37.803Z,82.87
2023-03-21T13:01:47.188Z,81.58
2023-03-21T13:11:57.368Z,80.02
2023-03-21T13:22:12.633Z,80.52
2023-03-21T13:32:29.245Z,78.72
2023-03-21T13:42:36.572Z,78.95
2023-03-21T13:52:42.246Z,79.34
2023-03-21T14:02:58.607Z,79.61
2023-03-21T14:13:06.882Z,80.25
2023-03-21T14:23:17.261Z,80.52
2023-03-21T14:33:27.505Z,80.67
2023-03-21T14:43:34.392Z,80.06
2023-03-21T14:53:43.748Z,79.05
2023-03-21T15:03:51.478Z,78.39
2023-03-21T15:13:56.587Z,77.48
2023-03-21T15:24:08.519Z,76.89
2023-03-21T15:34:22.629Z,76.78
2023-03-21T15:44:29.023Z,77.26
2023-03-21T15:54:40.332Z,78.06
2023-03-21T16:05:01.149Z,77.53
2023-03-21T16:15:08.808Z,77.68
2023-03-21T16:25:13.079Z,77.58
2023-03-21T16:35:22.389Z,78.14
2023-03-21T16:45:30.573Z,79.03
2023-03-21T16:55:38.845Z,79.77
2023-03-21T17:05:44.749Z,80.56
2023-03-21T17:15:50.388Z,81.81
2023-03-21T17:25:56.152Z,82.95
2023-03-21T17:36:02.193Z,83.80
2023-03-21T17:46:11.183Z,84.86
2023-03-21T17:56:21.175Z,85.43
2023-03-21T18:06:28.122Z,86.19
2023-03-21T18:16:34.116Z,86.59
2023-03-21T18:26:40.080Z,87.46
2023-03-21T18:36:45.960Z,87.90
2023-03-21T18:46:51.758Z,88.39
2023-03-21T18:57:33.868Z,88.47
2023-03-21T19:07:25.051Z,89.33
2023-03-21T19:27:57.326Z,92.17
2023-03-21T19:38:03.767Z,92.23
2023-03-21T19:48:09.895Z,92.41
2023-03-21T19:58:16.333Z,92.66
2023-03-21T20:08:22.317Z,93.39
2023-03-21T20:18:28.058Z,93.37
2023-03-21T20:28:34.598Z,93.43
2023-03-21T20:38:40.969Z,95.03
2023-03-21T20:48:48.903Z,95.04
2023-03-21T20:59:08.339Z,95.28
2023-03-21T21:09:20.905Z,96.69
2023-03-21T21:19:27.090Z,97.45
2023-03-21T21:29:32.832Z,97.74
2023-03-21T21:39:40.286Z,98.30
2023-03-21T21:49:46.060Z,98.97
2023-03-21T21:59:54.401Z,99.73
2023-03-21T22:10:00.305Z,99.67
2023-03-21T22:20:09.072Z,99.99
2023-03-21T22:30:18.646Z,99.89
2023-03-21T22:40:24.606Z,99.90
2023-03-21T22:50:30.727Z,100.00
2023-03-21T23:00:36.864Z,100.00
2023-03-21T23:10:46.017Z,100.00
2023-03-21T23:20:53.630Z,100.00
2023-03-21T23:30:59.455Z,100.00
2023-03-21T23:41:09.662Z,100.00
2023-03-21T23:51:17.372Z,100.00
